sensor_id;sensor_type;location;lat;lon;timestamp;P1;durP1;ratioP1;P2;durP2;ratioP2
795;SDS011;381;48.770;9.188;2023-05-02T00:03:59;7.03;;;6.53;;
795;SDS011;381;48.770;9.188;2023-05-02T00:09:02;6.80;;;6.40;;
795;SDS011;381;48.770;9.188;2023-05-02T00:14:04;7.23;;;6.63;;
795;SDS011;381;48.770;9.188;2023-05-02T00:19:07;6.97;;;6.40;;
795;SDS011;381;48.770;9.188;2023-05-02T00:24:09;7.10;;;6.70;;
795;SDS011;381;48.770;9.188;2023-05-02T00:29:11;6.80;;;6.30;;
795;SDS011;381;48.770;9.188;2023-05-02T00:34:15;6.83;;;6.33;;
795;SDS011;381;48.770;9.188;2023-05-02T00:39:17;6.60;;;6.20;;
795;SDS011;381;48.770;9.188;2023-05-02T00:44:19;6.90;;;6.40;;
795;SDS011;381;48.770;9.188;2023-05-02T00:49:23;7.00;;;6.60;;
795;SDS011;381;48.770;9.188;2023-05-02T00:54:25;7.17;;;6.70;;
795;SDS011;381;48.770;9.188;2023-05-02T00:59:27;6.17;;;5.77;;
795;SDS011;381;48.770;9.188;2023-05-02T01:04:33;7.10;;;6.50;;
795;SDS011;381;48.770;9.188;2023-05-02T01:09:47;7.20;;;6.60;;
795;SDS011;381;48.770;9.188;2023-05-02T01:14:57;6.77;;;6.27;;
795;SDS011;381;48.770;9.188;2023-05-02T01:20:06;6.67;;;6.27;;
795;SDS011;381;48.770;9.188;2023-05-02T01:25:15;7.37;;;6.87;;
795;SDS011;381;48.770;9.188;2023-05-02T01:30:24;7.40;;;6.80;;
795;SDS011;381;48.770;9.188;2023-05-02T01:35:30;7.33;;;6.80;;
795;SDS011;381;48.770;9.188;2023-05-02T01:40:34;8.10;;;7.40;;
795;SDS011;381;48.770;9.188;2023-05-02T01:45:40;7.33;;;6.83;;
795;SDS011;381;48.770;9.188;2023-05-02T01:50:46;7.33;;;6.70;;
795;SDS011;381;48.770;9.188;2023-05-02T01:55:49;7.90;;;7.30;;
795;SDS011;381;48.770;9.188;2023-05-02T02:00:55;7.83;;;7.33;;
795;SDS011;381;48.770;9.188;2023-05-02T02:06:00;7.33;;;6.83;;
795;SDS011;381;48.770;9.188;2023-05-02T02:11:07;7.57;;;7.07;;
795;SDS011;381;48.770;9.188;2023-05-02T02:16:13;8.03;;;7.43;;
795;SDS011;381;48.770;9.188;2023-05-02T02:21:24;7.33;;;6.83;;
795;SDS011;381;48.770;9.188;2023-05-02T02:26:29;7.60;;;7.07;;
795;SDS011;381;48.770;9.188;2023-05-02T02:31:33;8.00;;;7.20;;
795;SDS011;381;48.770;9.188;2023-05-02T02:36:38;7.33;;;6.63;;
795;SDS011;381;48.770;9.188;2023-05-02T02:41:47;8.13;;;7.63;;
795;SDS011;381;48.770;9.188;2023-05-02T02:47:00;8.50;;;7.70;;
795;SDS011;381;48.770;9.188;2023-05-02T02:52:08;7.20;;;6.70;;
795;SDS011;381;48.770;9.188;2023-05-02T02:57:16;8.13;;;7.60;;
795;SDS011;381;48.770;9.188;2023-05-02T03:02:26;8.20;;;7.70;;
795;SDS011;381;48.770;9.188;2023-05-02T03:07:32;8.50;;;7.80;;
795;SDS011;381;48.770;9.188;2023-05-02T03:12:36;8.23;;;7.63;;
795;SDS011;381;48.770;9.188;2023-05-02T03:17:40;8.57;;;7.97;;
795;SDS011;381;48.770;9.188;2023-05-02T03:22:42;7.70;;;7.10;;
795;SDS011;381;48.770;9.188;2023-05-02T03:27:44;6.53;;;6.13;;
795;SDS011;381;48.770;9.188;2023-05-02T03:32:49;8.67;;;8.07;;
795;SDS011;381;48.770;9.188;2023-05-02T03:37:51;8.10;;;7.60;;
795;SDS011;381;48.770;9.188;2023-05-02T03:42:54;8.70;;;8.10;;
795;SDS011;381;48.770;9.188;2023-05-02T03:48:03;7.83;;;7.33;;
795;SDS011;381;48.770;9.188;2023-05-02T03:53:06;6.90;;;6.40;;
795;SDS011;381;48.770;9.188;2023-05-02T03:58:18;7.93;;;7.37;;
795;SDS011;381;48.770;9.188;2023-05-02T04:03:22;8.33;;;7.73;;
795;SDS011;381;48.770;9.188;2023-05-02T04:08:24;9.00;;;8.37;;
795;SDS011;381;48.770;9.188;2023-05-02T04:13:27;9.07;;;8.30;;
795;SDS011;381;48.770;9.188;2023-05-02T04:18:32;7.93;;;7.43;;
795;SDS011;381;48.770;9.188;2023-05-02T04:23:36;8.93;;;8.23;;
795;SDS011;381;48.770;9.188;2023-05-02T04:28:39;8.70;;;8.10;;
795;SDS011;381;48.770;9.188;2023-05-02T04:33:44;9.00;;;8.40;;
795;SDS011;381;48.770;9.188;2023-05-02T04:38:52;8.93;;;8.33;;
795;SDS011;381;48.770;9.188;2023-05-02T04:43:55;9.07;;;8.27;;
795;SDS011;381;48.770;9.188;2023-05-02T04:48:59;8.77;;;8.10;;
795;SDS011;381;48.770;9.188;2023-05-02T04:54:01;9.10;;;8.30;;
795;SDS011;381;48.770;9.188;2023-05-02T04:59:04;9.80;;;8.80;;
795;SDS011;381;48.770;9.188;2023-05-02T05:04:09;11.30;;;10.40;;
795;SDS011;381;48.770;9.188;2023-05-02T05:09:11;9.70;;;9.07;;
795;SDS011;381;48.770;9.188;2023-05-02T05:14:13;9.70;;;8.90;;
795;SDS011;381;48.770;9.188;2023-05-02T05:19:21;10.23;;;9.40;;
795;SDS011;381;48.770;9.188;2023-05-02T05:24:24;9.33;;;8.70;;
795;SDS011;381;48.770;9.188;2023-05-02T05:29:29;10.30;;;9.50;;
795;SDS011;381;48.770;9.188;2023-05-02T05:34:34;10.00;;;9.30;;
795;SDS011;381;48.770;9.188;2023-05-02T05:39:37;9.60;;;8.90;;
795;SDS011;381;48.770;9.188;2023-05-02T05:44:40;9.33;;;8.67;;
795;SDS011;381;48.770;9.188;2023-05-02T05:49:44;9.50;;;8.73;;
795;SDS011;381;48.770;9.188;2023-05-02T05:54:47;10.90;;;10.10;;
795;SDS011;381;48.770;9.188;2023-05-02T05:59:49;11.67;;;10.70;;
795;SDS011;381;48.770;9.188;2023-05-02T06:04:53;10.67;;;9.87;;
795;SDS011;381;48.770;9.188;2023-05-02T06:09:58;11.97;;;11.03;;
795;SDS011;381;48.770;9.188;2023-05-02T06:15:02;12.23;;;11.30;;
795;SDS011;381;48.770;9.188;2023-05-02T06:20:07;12.73;;;11.80;;
795;SDS011;381;48.770;9.188;2023-05-02T06:25:10;13.60;;;12.40;;
795;SDS011;381;48.770;9.188;2023-05-02T06:30:12;12.37;;;11.47;;
795;SDS011;381;48.770;9.188;2023-05-02T06:35:15;12.70;;;11.80;;
795;SDS011;381;48.770;9.188;2023-05-02T06:40:17;14.43;;;13.37;;
795;SDS011;381;48.770;9.188;2023-05-02T06:45:19;15.57;;;14.07;;
795;SDS011;381;48.770;9.188;2023-05-02T06:50:23;15.33;;;13.93;;
795;SDS011;381;48.770;9.188;2023-05-02T06:55:25;15.20;;;14.00;;
795;SDS011;381;48.770;9.188;2023-05-02T07:00:27;16.33;;;15.03;;
795;SDS011;381;48.770;9.188;2023-05-02T07:05:31;17.97;;;16.47;;
795;SDS011;381;48.770;9.188;2023-05-02T07:10:33;19.37;;;17.67;;
795;SDS011;381;48.770;9.188;2023-05-02T07:15:35;18.60;;;17.00;;
795;SDS011;381;48.770;9.188;2023-05-02T07:20:38;18.60;;;17.00;;
795;SDS011;381;48.770;9.188;2023-05-02T07:25:41;19.87;;;18.27;;
795;SDS011;381;48.770;9.188;2023-05-02T07:30:47;19.57;;;17.90;;
795;SDS011;381;48.770;9.188;2023-05-02T07:35:51;20.83;;;18.97;;
795;SDS011;381;48.770;9.188;2023-05-02T07:40:56;20.97;;;19.20;;
795;SDS011;381;48.770;9.188;2023-05-02T07:46:02;22.40;;;20.33;;
795;SDS011;381;48.770;9.188;2023-05-02T07:51:07;21.90;;;20.10;;
795;SDS011;381;48.770;9.188;2023-05-02T07:56:10;22.50;;;20.60;;
795;SDS011;381;48.770;9.188;2023-05-02T08:01:12;20.93;;;18.97;;
795;SDS011;381;48.770;9.188;2023-05-02T08:06:15;20.90;;;19.00;;
795;SDS011;381;48.770;9.188;2023-05-02T08:11:17;23.40;;;21.40;;
795;SDS011;381;48.770;9.188;2023-05-02T08:16:21;23.83;;;21.63;;
795;SDS011;381;48.770;9.188;2023-05-02T08:21:25;22.23;;;20.27;;
795;SDS011;381;48.770;9.188;2023-05-02T08:26:27;25.57;;;23.30;;
795;SDS011;381;48.770;9.188;2023-05-02T08:31:29;23.23;;;21.23;;
795;SDS011;381;48.770;9.188;2023-05-02T08:36:34;24.97;;;22.80;;
795;SDS011;381;48.770;9.188;2023-05-02T08:41:36;25.10;;;22.87;;
795;SDS011;381;48.770;9.188;2023-05-02T08:46:39;23.13;;;20.73;;
795;SDS011;381;48.770;9.188;2023-05-02T08:51:43;21.50;;;19.60;;
795;SDS011;381;48.770;9.188;2023-05-02T08:56:46;25.60;;;23.40;;
795;SDS011;381;48.770;9.188;2023-05-02T09:01:48;22.60;;;20.57;;
795;SDS011;381;48.770;9.188;2023-05-02T09:06:57;23.73;;;21.63;;
795;SDS011;381;48.770;9.188;2023-05-02T09:11:59;22.30;;;20.13;;
795;SDS011;381;48.770;9.188;2023-05-02T09:17:02;22.87;;;20.87;;
795;SDS011;381;48.770;9.188;2023-05-02T09:22:05;21.67;;;19.73;;
795;SDS011;381;48.770;9.188;2023-05-02T09:27:07;20.07;;;18.20;;
795;SDS011;381;48.770;9.188;2023-05-02T09:32:10;19.80;;;17.97;;
795;SDS011;381;48.770;9.188;2023-05-02T09:37:13;20.97;;;18.83;;
795;SDS011;381;48.770;9.188;2023-05-02T09:42:35;18.97;;;17.17;;
795;SDS011;381;48.770;9.188;2023-05-02T09:47:37;21.83;;;19.83;;
795;SDS011;381;48.770;9.188;2023-05-02T09:52:41;18.73;;;17.10;;
795;SDS011;381;48.770;9.188;2023-05-02T09:58:01;22.13;;;19.90;;
795;SDS011;381;48.770;9.188;2023-05-02T10:03:05;22.57;;;20.27;;
795;SDS011;381;48.770;9.188;2023-05-02T10:08:09;17.50;;;15.70;;
795;SDS011;381;48.770;9.188;2023-05-02T10:13:12;20.77;;;18.90;;
795;SDS011;381;48.770;9.188;2023-05-02T10:18:20;19.20;;;17.40;;
795;SDS011;381;48.770;9.188;2023-05-02T10:23:29;22.50;;;20.30;;
795;SDS011;381;48.770;9.188;2023-05-02T10:28:32;20.10;;;18.40;;
795;SDS011;381;48.770;9.188;2023-05-02T10:33:35;23.33;;;21.23;;
795;SDS011;381;48.770;9.188;2023-05-02T10:38:39;30.37;;;27.80;;
795;SDS011;381;48.770;9.188;2023-05-02T10:43:44;21.60;;;19.63;;
795;SDS011;381;48.770;9.188;2023-05-02T10:48:58;20.87;;;18.93;;
795;SDS011;381;48.770;9.188;2023-05-02T10:59:27;18.10;;;16.40;;
795;SDS011;381;48.770;9.188;2023-05-02T11:26:28;15.67;;;14.27;;
795;SDS011;381;48.770;9.188;2023-05-02T11:37:09;16.17;;;14.77;;
795;SDS011;381;48.770;9.188;2023-05-02T11:47:31;17.57;;;15.00;;
795;SDS011;381;48.770;9.188;2023-05-02T11:52:36;18.87;;;16.97;;
795;SDS011;381;48.770;9.188;2023-05-02T11:57:40;17.67;;;16.17;;
795;SDS011;381;48.770;9.188;2023-05-02T12:02:44;17.73;;;16.20;;
795;SDS011;381;48.770;9.188;2023-05-02T12:07:46;21.80;;;19.70;;
795;SDS011;381;48.770;9.188;2023-05-02T12:12:50;21.60;;;19.60;;
795;SDS011;381;48.770;9.188;2023-05-02T12:18:05;20.53;;;18.50;;
795;SDS011;381;48.770;9.188;2023-05-02T12:23:08;21.97;;;19.97;;
795;SDS011;381;48.770;9.188;2023-05-02T12:28:12;23.23;;;20.90;;
795;SDS011;381;48.770;9.188;2023-05-02T12:33:14;19.60;;;17.60;;
795;SDS011;381;48.770;9.188;2023-05-02T12:38:17;23.40;;;21.10;;
795;SDS011;381;48.770;9.188;2023-05-02T12:43:23;24.57;;;22.27;;
795;SDS011;381;48.770;9.188;2023-05-02T12:48:26;26.30;;;23.80;;
795;SDS011;381;48.770;9.188;2023-05-02T12:53:38;25.43;;;23.03;;
795;SDS011;381;48.770;9.188;2023-05-02T12:58:44;25.07;;;22.67;;
795;SDS011;381;48.770;9.188;2023-05-02T13:03:49;23.93;;;21.70;;
795;SDS011;381;48.770;9.188;2023-05-02T13:08:51;22.80;;;20.80;;
795;SDS011;381;48.770;9.188;2023-05-02T13:13:55;24.67;;;22.07;;
795;SDS011;381;48.770;9.188;2023-05-02T13:18:59;22.13;;;20.03;;
795;SDS011;381;48.770;9.188;2023-05-02T13:24:01;22.27;;;20.03;;
795;SDS011;381;48.770;9.188;2023-05-02T13:29:05;19.97;;;18.07;;
795;SDS011;381;48.770;9.188;2023-05-02T13:34:09;18.17;;;16.50;;
795;SDS011;381;48.770;9.188;2023-05-02T13:39:11;19.27;;;17.37;;
795;SDS011;381;48.770;9.188;2023-05-02T13:44:14;21.33;;;18.47;;
795;SDS011;381;48.770;9.188;2023-05-02T13:49:16;18.73;;;16.87;;
795;SDS011;381;48.770;9.188;2023-05-02T13:54:18;18.70;;;16.83;;
795;SDS011;381;48.770;9.188;2023-05-02T13:59:22;17.43;;;15.80;;
795;SDS011;381;48.770;9.188;2023-05-02T14:04:24;18.53;;;16.63;;
795;SDS011;381;48.770;9.188;2023-05-02T14:09:26;16.93;;;15.23;;
795;SDS011;381;48.770;9.188;2023-05-02T14:14:29;18.73;;;17.07;;
795;SDS011;381;48.770;9.188;2023-05-02T14:19:31;18.20;;;16.50;;
795;SDS011;381;48.770;9.188;2023-05-02T14:24:33;16.30;;;14.67;;
795;SDS011;381;48.770;9.188;2023-05-02T14:29:37;12.60;;;11.30;;
795;SDS011;381;48.770;9.188;2023-05-02T14:34:39;14.20;;;12.80;;
795;SDS011;381;48.770;9.188;2023-05-02T14:39:41;17.80;;;12.30;;
795;SDS011;381;48.770;9.188;2023-05-02T14:44:46;10.90;;;10.00;;
795;SDS011;381;48.770;9.188;2023-05-02T14:49:48;9.90;;;9.00;;
795;SDS011;381;48.770;9.188;2023-05-02T14:54:51;9.73;;;8.83;;
795;SDS011;381;48.770;9.188;2023-05-02T14:59:55;10.57;;;9.67;;
795;SDS011;381;48.770;9.188;2023-05-02T15:04:57;10.70;;;9.67;;
795;SDS011;381;48.770;9.188;2023-05-02T15:09:59;9.60;;;8.70;;
795;SDS011;381;48.770;9.188;2023-05-02T15:15:03;11.00;;;9.97;;
795;SDS011;381;48.770;9.188;2023-05-02T15:20:06;14.70;;;12.30;;
795;SDS011;381;48.770;9.188;2023-05-02T15:25:09;12.43;;;11.20;;
795;SDS011;381;48.770;9.188;2023-05-02T15:30:12;11.23;;;9.57;;
795;SDS011;381;48.770;9.188;2023-05-02T15:35:15;10.03;;;9.03;;
795;SDS011;381;48.770;9.188;2023-05-02T15:40:17;12.93;;;10.43;;
795;SDS011;381;48.770;9.188;2023-05-02T15:45:20;10.50;;;9.30;;
795;SDS011;381;48.770;9.188;2023-05-02T15:50:22;8.07;;;7.37;;
795;SDS011;381;48.770;9.188;2023-05-02T15:55:25;7.90;;;5.70;;
795;SDS011;381;48.770;9.188;2023-05-02T16:00:28;6.33;;;5.73;;
795;SDS011;381;48.770;9.188;2023-05-02T16:05:30;6.37;;;5.77;;
795;SDS011;381;48.770;9.188;2023-05-02T16:10:32;7.50;;;6.03;;
795;SDS011;381;48.770;9.188;2023-05-02T16:15:37;7.50;;;6.80;;
795;SDS011;381;48.770;9.188;2023-05-02T16:20:39;6.27;;;5.70;;
795;SDS011;381;48.770;9.188;2023-05-02T16:25:41;6.03;;;5.60;;
795;SDS011;381;48.770;9.188;2023-05-02T16:30:44;5.83;;;5.23;;
795;SDS011;381;48.770;9.188;2023-05-02T16:35:46;5.47;;;4.80;;
795;SDS011;381;48.770;9.188;2023-05-02T16:41:01;5.60;;;5.20;;
795;SDS011;381;48.770;9.188;2023-05-02T16:46:05;5.00;;;4.60;;
795;SDS011;381;48.770;9.188;2023-05-02T16:51:08;4.93;;;4.43;;
795;SDS011;381;48.770;9.188;2023-05-02T16:56:10;5.33;;;4.40;;
795;SDS011;381;48.770;9.188;2023-05-02T17:01:13;3.90;;;3.63;;
795;SDS011;381;48.770;9.188;2023-05-02T17:06:16;3.70;;;3.40;;
795;SDS011;381;48.770;9.188;2023-05-02T17:11:18;3.77;;;3.37;;
795;SDS011;381;48.770;9.188;2023-05-02T17:16:22;3.80;;;3.50;;
795;SDS011;381;48.770;9.188;2023-05-02T17:21:24;4.00;;;3.70;;
795;SDS011;381;48.770;9.188;2023-05-02T17:26:27;3.33;;;3.07;;
795;SDS011;381;48.770;9.188;2023-05-02T17:31:30;3.43;;;3.20;;
795;SDS011;381;48.770;9.188;2023-05-02T17:36:32;4.00;;;3.60;;
795;SDS011;381;48.770;9.188;2023-05-02T17:41:35;3.70;;;3.00;;
795;SDS011;381;48.770;9.188;2023-05-02T17:46:39;3.40;;;3.20;;
795;SDS011;381;48.770;9.188;2023-05-02T17:51:41;3.27;;;3.00;;
795;SDS011;381;48.770;9.188;2023-05-02T17:56:44;4.97;;;3.93;;
795;SDS011;381;48.770;9.188;2023-05-02T18:01:48;5.80;;;4.40;;
795;SDS011;381;48.770;9.188;2023-05-02T18:06:56;6.60;;;4.90;;
795;SDS011;381;48.770;9.188;2023-05-02T18:12:07;5.63;;;5.10;;
795;SDS011;381;48.770;9.188;2023-05-02T18:17:11;5.53;;;5.13;;
795;SDS011;381;48.770;9.188;2023-05-02T18:22:13;6.20;;;5.70;;
795;SDS011;381;48.770;9.188;2023-05-02T18:27:15;6.20;;;5.67;;
795;SDS011;381;48.770;9.188;2023-05-02T18:32:19;6.03;;;5.60;;
795;SDS011;381;48.770;9.188;2023-05-02T18:37:21;7.20;;;6.60;;
795;SDS011;381;48.770;9.188;2023-05-02T18:42:30;7.07;;;5.13;;
795;SDS011;381;48.770;9.188;2023-05-02T18:47:33;6.17;;;5.23;;
795;SDS011;381;48.770;9.188;2023-05-02T18:52:36;7.00;;;6.30;;
795;SDS011;381;48.770;9.188;2023-05-02T18:57:38;6.63;;;6.13;;
795;SDS011;381;48.770;9.188;2023-05-02T19:02:41;7.23;;;6.53;;
795;SDS011;381;48.770;9.188;2023-05-02T19:07:43;7.03;;;6.43;;
795;SDS011;381;48.770;9.188;2023-05-02T19:12:45;6.77;;;6.13;;
795;SDS011;381;48.770;9.188;2023-05-02T19:17:49;8.93;;;8.13;;
795;SDS011;381;48.770;9.188;2023-05-02T19:22:52;8.00;;;7.27;;
795;SDS011;381;48.770;9.188;2023-05-02T19:27:55;7.27;;;6.57;;
795;SDS011;381;48.770;9.188;2023-05-02T19:32:58;7.50;;;6.90;;
795;SDS011;381;48.770;9.188;2023-05-02T19:38:00;7.00;;;6.40;;
795;SDS011;381;48.770;9.188;2023-05-02T19:43:02;8.03;;;7.43;;
795;SDS011;381;48.770;9.188;2023-05-02T19:48:06;8.47;;;7.67;;
795;SDS011;381;48.770;9.188;2023-05-02T19:53:08;8.10;;;7.40;;
795;SDS011;381;48.770;9.188;2023-05-02T19:58:10;7.57;;;6.97;;
795;SDS011;381;48.770;9.188;2023-05-02T20:03:14;7.43;;;6.40;;
795;SDS011;381;48.770;9.188;2023-05-02T20:08:16;7.40;;;6.80;;
795;SDS011;381;48.770;9.188;2023-05-02T20:13:19;7.30;;;6.70;;
795;SDS011;381;48.770;9.188;2023-05-02T20:18:22;7.40;;;6.70;;
795;SDS011;381;48.770;9.188;2023-05-02T20:23:24;6.97;;;6.37;;
795;SDS011;381;48.770;9.188;2023-05-02T20:28:26;6.60;;;6.10;;
795;SDS011;381;48.770;9.188;2023-05-02T20:33:30;8.20;;;7.50;;
795;SDS011;381;48.770;9.188;2023-05-02T20:38:32;7.13;;;6.63;;
795;SDS011;381;48.770;9.188;2023-05-02T20:43:34;7.27;;;6.67;;
795;SDS011;381;48.770;9.188;2023-05-02T20:48:40;7.70;;;7.00;;
795;SDS011;381;48.770;9.188;2023-05-02T20:53:42;7.70;;;7.00;;
795;SDS011;381;48.770;9.188;2023-05-02T20:58:44;7.93;;;6.60;;
795;SDS011;381;48.770;9.188;2023-05-02T21:03:47;6.93;;;6.30;;
795;SDS011;381;48.770;9.188;2023-05-02T21:08:49;7.93;;;7.23;;
795;SDS011;381;48.770;9.188;2023-05-02T21:13:54;8.00;;;7.40;;
795;SDS011;381;48.770;9.188;2023-05-02T21:18:57;6.90;;;6.30;;
795;SDS011;381;48.770;9.188;2023-05-02T21:24:00;7.30;;;6.70;;
795;SDS011;381;48.770;9.188;2023-05-02T21:29:03;7.83;;;7.07;;
795;SDS011;381;48.770;9.188;2023-05-02T21:34:07;8.03;;;7.33;;
795;SDS011;381;48.770;9.188;2023-05-02T21:39:10;7.70;;;7.00;;
795;SDS011;381;48.770;9.188;2023-05-02T21:44:12;9.73;;;8.83;;
795;SDS011;381;48.770;9.188;2023-05-02T21:49:15;7.63;;;7.03;;
795;SDS011;381;48.770;9.188;2023-05-02T21:54:17;7.60;;;6.80;;
795;SDS011;381;48.770;9.188;2023-05-02T21:59:20;8.67;;;7.80;;
795;SDS011;381;48.770;9.188;2023-05-02T22:04:23;7.40;;;6.40;;
795;SDS011;381;48.770;9.188;2023-05-02T22:09:26;6.97;;;6.40;;
795;SDS011;381;48.770;9.188;2023-05-02T22:14:28;7.50;;;6.90;;
795;SDS011;381;48.770;9.188;2023-05-02T22:19:31;7.10;;;6.40;;
795;SDS011;381;48.770;9.188;2023-05-02T22:24:33;8.00;;;7.20;;
795;SDS011;381;48.770;9.188;2023-05-02T22:29:35;8.10;;;7.40;;
795;SDS011;381;48.770;9.188;2023-05-02T22:34:38;8.07;;;7.40;;
795;SDS011;381;48.770;9.188;2023-05-02T22:39:40;10.03;;;7.87;;
795;SDS011;381;48.770;9.188;2023-05-02T22:44:43;10.30;;;8.13;;
795;SDS011;381;48.770;9.188;2023-05-02T22:49:50;7.80;;;7.20;;
795;SDS011;381;48.770;9.188;2023-05-02T22:54:53;8.23;;;7.60;;
795;SDS011;381;48.770;9.188;2023-05-02T22:59:55;8.00;;;7.30;;
795;SDS011;381;48.770;9.188;2023-05-02T23:04:59;7.93;;;7.10;;
795;SDS011;381;48.770;9.188;2023-05-02T23:10:01;8.00;;;7.30;;
795;SDS011;381;48.770;9.188;2023-05-02T23:15:04;7.73;;;6.90;;
795;SDS011;381;48.770;9.188;2023-05-02T23:20:08;8.13;;;7.43;;
795;SDS011;381;48.770;9.188;2023-05-02T23:25:11;8.87;;;8.10;;
795;SDS011;381;48.770;9.188;2023-05-02T23:30:14;8.43;;;7.63;;
795;SDS011;381;48.770;9.188;2023-05-02T23:35:17;7.67;;;6.97;;
795;SDS011;381;48.770;9.188;2023-05-02T23:40:20;7.37;;;6.77;;
795;SDS011;381;48.770;9.188;2023-05-02T23:45:22;7.40;;;6.80;;
795;SDS011;381;48.770;9.188;2023-05-02T23:50:25;8.13;;;7.33;;
795;SDS011;381;48.770;9.188;2023-05-02T23:55:27;7.43;;;6.70;;
